createdAt,value
2023-04-06T00:02:10.664Z,25.40
2023-04-06T00:07:12.777Z,24.17
2023-04-06T00:12:14.752Z,25.60
2023-04-06T00:17:16.539Z,24.60
2023-04-06T00:22:18.362Z,26.02
2023-04-06T00:27:20.590Z,24.10
2023-04-06T00:32:22.519Z,25.35
2023-04-06T00:37:24.429Z,31.95
2023-04-06T00:42:27.177Z,21.27
2023-04-06T00:47:29.651Z,23.73
2023-04-06T00:52:31.529Z,21.67
2023-04-06T00:57:33.332Z,26.92
2023-04-06T01:02:35.220Z,28.63
2023-04-06T01:07:37.023Z,23.65
2023-04-06T01:12:39.849Z,23.75
2023-04-06T01:17:42.440Z,22.80
2023-04-06T01:22:44.382Z,27.15
2023-04-06T01:27:46.636Z,25.65
2023-04-06T01:32:48.671Z,26.15
2023-04-06T01:37:50.519Z,25.55
2023-04-06T01:42:52.321Z,23.75
2023-04-06T01:47:54.255Z,23.63
2023-04-06T01:52:56.079Z,22.50
2023-04-06T01:57:57.947Z,24.10
2023-04-06T02:02:59.886Z,25.45
2023-04-06T02:08:01.702Z,25.30
2023-04-06T02:13:03.611Z,22.83
2023-04-06T02:18:05.708Z,22.98
2023-04-06T02:23:08.054Z,23.17
2023-04-06T02:28:09.891Z,29.95
2023-04-06T02:33:11.652Z,23.80
2023-04-06T02:38:13.405Z,21.60
2023-04-06T02:43:16.469Z,23.08
2023-04-06T02:48:18.234Z,23.55
2023-04-06T02:53:20.025Z,19.30
2023-04-06T02:58:21.857Z,27.55
2023-04-06T03:03:23.910Z,19.42
2023-04-06T03:08:26.050Z,21.73
2023-04-06T03:13:27.841Z,17.73
2023-04-06T03:18:29.621Z,21.88
2023-04-06T03:23:31.421Z,19.52
2023-04-06T03:28:33.354Z,25.02
2023-04-06T03:33:35.282Z,23.40
2023-04-06T03:38:37.987Z,21.40
2023-04-06T03:43:40.955Z,21.27
2023-04-06T03:48:42.779Z,19.73
2023-04-06T03:53:44.571Z,19.90
2023-04-06T03:58:46.620Z,20.55
2023-04-06T04:03:51.462Z,19.08
2023-04-06T04:08:53.798Z,18.90
2023-04-06T04:13:55.754Z,20.60
2023-04-06T04:18:59.242Z,19.10
2023-04-06T04:24:02.317Z,20.65
2023-04-06T04:29:04.123Z,20.38
2023-04-06T04:34:07.790Z,27.67
2023-04-06T04:39:09.923Z,19.30
2023-04-06T04:44:11.879Z,19.15
2023-04-06T04:49:13.736Z,23.75
2023-04-06T04:54:15.667Z,19.65
2023-04-06T04:59:17.700Z,20.00
2023-04-06T05:04:19.899Z,24.13
2023-04-06T05:09:21.815Z,26.35
2023-04-06T05:14:23.734Z,23.85
2023-04-06T05:19:25.731Z,23.63
2023-04-06T05:24:27.574Z,27.90
2023-04-06T05:29:30.194Z,23.35
2023-04-06T05:34:32.418Z,23.75
2023-04-06T05:39:34.349Z,24.20
2023-04-06T05:44:38.331Z,22.33
2023-04-06T05:49:40.191Z,22.63
2023-04-06T05:54:42.155Z,20.90
2023-04-06T05:59:44.058Z,22.05
2023-04-06T06:04:46.011Z,24.10
2023-04-06T06:09:47.818Z,23.90
2023-04-06T06:14:49.682Z,21.63
2023-04-06T06:19:51.517Z,19.83
2023-04-06T06:24:53.301Z,21.60
2023-04-06T06:29:55.112Z,21.42
2023-04-06T06:34:56.942Z,23.38
2023-04-06T06:39:58.755Z,23.17
2023-04-06T06:45:00.837Z,20.08
2023-04-06T06:50:04.182Z,22.35
2023-04-06T06:55:06.317Z,23.85
2023-04-06T07:00:09.685Z,25.92
2023-04-06T07:05:26.079Z,26.48
2023-04-06T07:10:29.116Z,25.63
2023-04-06T07:15:31.359Z,23.52
2023-04-06T07:20:33.312Z,25.23
2023-04-06T07:25:35.299Z,22.15
2023-04-06T07:30:38.862Z,26.65
2023-04-06T07:35:40.967Z,20.95
2023-04-06T07:40:42.967Z,22.52
2023-04-06T07:45:44.947Z,35.72
2023-04-06T07:50:47.006Z,21.92
2023-04-06T07:55:48.893Z,20.45
2023-04-06T08:00:51.079Z,19.65
2023-04-06T08:05:56.257Z,19.63
2023-04-06T08:11:00.686Z,23.88
2023-04-06T08:16:03.956Z,20.40
2023-04-06T08:21:05.919Z,22.17
2023-04-06T08:26:08.016Z,21.65
2023-04-06T08:31:09.924Z,19.13
2023-04-06T08:36:13.976Z,20.48
2023-04-06T08:41:17.680Z,22.55
2023-04-06T08:46:19.914Z,16.30
2023-04-06T08:51:23.967Z,18.58
2023-04-06T08:56:27.555Z,17.27
2023-04-06T09:01:30.631Z,18.08
2023-04-06T09:06:32.873Z,19.58
2023-04-06T09:11:47.413Z,19.83
2023-04-06T09:16:49.250Z,20.92
2023-04-06T09:21:51.322Z,17.17
2023-04-06T09:26:53.167Z,16.48
2023-04-06T09:32:07.247Z,20.50
2023-04-06T09:37:19.407Z,20.55
2023-04-06T09:42:27.385Z,19.95
2023-04-06T09:47:31.321Z,17.90
2023-04-06T09:52:38.328Z,19.65
2023-04-06T09:57:51.442Z,18.17
2023-04-06T10:03:20.920Z,22.38
2023-04-06T10:08:25.434Z,23.10
2023-04-06T10:13:27.764Z,20.33
2023-04-06T10:18:29.954Z,17.60
2023-04-06T10:23:38.311Z,16.58
2023-04-06T10:28:42.991Z,17.52
2023-04-06T10:34:01.691Z,16.83
2023-04-06T10:39:05.973Z,17.10
2023-04-06T10:44:08.259Z,21.75
2023-04-06T10:49:13.805Z,18.23
2023-04-06T10:54:17.836Z,15.45
2023-04-06T10:59:21.941Z,17.70
2023-04-06T11:04:24.541Z,17.65
2023-04-06T11:09:27.800Z,16.88
2023-04-06T11:14:29.585Z,17.90
2023-04-06T11:19:32.936Z,17.90
2023-04-06T11:24:35.159Z,16.42
2023-04-06T11:29:39.039Z,15.30
2023-04-06T11:34:41.990Z,15.93
2023-04-06T11:39:52.015Z,18.90
2023-04-06T11:45:01.398Z,16.47
2023-04-06T11:50:11.536Z,18.58
2023-04-06T11:55:18.812Z,15.07
2023-04-06T12:00:22.117Z,15.55
2023-04-06T12:05:24.905Z,16.60
2023-04-06T12:10:26.750Z,14.05
2023-04-06T12:15:28.600Z,16.50
2023-04-06T12:20:30.846Z,18.63
2023-04-06T12:25:32.680Z,18.92
2023-04-06T12:30:36.659Z,19.17
2023-04-06T12:35:38.522Z,15.40
2023-04-06T12:40:40.853Z,13.20
2023-04-06T12:45:42.831Z,14.45
2023-04-06T12:50:44.598Z,14.13
2023-04-06T12:55:46.606Z,14.82
2023-04-06T13:00:51.830Z,21.15
2023-04-06T13:05:53.717Z,12.90
2023-04-06T13:10:55.865Z,16.98
2023-04-06T13:16:07.212Z,16.58
2023-04-06T13:21:09.183Z,18.63
2023-04-06T13:26:10.989Z,18.40
2023-04-06T13:31:13.048Z,18.63
2023-04-06T13:36:17.814Z,18.95
2023-04-06T13:41:24.329Z,17.45
2023-04-06T13:46:28.868Z,17.55
2023-04-06T13:51:31.799Z,18.83
2023-04-06T13:56:33.579Z,18.55
2023-04-06T14:01:35.549Z,19.40
2023-04-06T14:06:38.273Z,20.58
2023-04-06T14:11:40.069Z,25.20
2023-04-06T14:16:45.095Z,21.92
2023-04-06T14:21:47.027Z,19.40
2023-04-06T14:26:49.002Z,21.15
2023-04-06T14:31:50.761Z,20.85
2023-04-06T14:36:52.594Z,24.58
2023-04-06T14:41:54.366Z,20.55
2023-04-06T14:46:56.794Z,20.15
2023-04-06T14:52:00.177Z,18.25
2023-04-06T14:57:02.922Z,17.48
2023-04-06T15:02:05.041Z,17.92
2023-04-06T15:07:06.888Z,20.08
2023-04-06T15:12:08.749Z,20.40
2023-04-06T15:17:10.560Z,18.38
2023-04-06T15:22:12.471Z,20.98
2023-04-06T15:27:14.282Z,18.63
2023-04-06T15:32:16.195Z,22.85
2023-04-06T15:37:18.043Z,22.38
2023-04-06T15:42:19.787Z,23.52
2023-04-06T15:47:21.942Z,22.73
2023-04-06T15:52:23.962Z,22.67
2023-04-06T15:57:25.901Z,26.20
2023-04-06T16:02:28.322Z,23.52
2023-04-06T16:07:31.936Z,21.13
2023-04-06T16:12:34.063Z,18.98
2023-04-06T16:17:35.990Z,23.15
2023-04-06T16:22:37.999Z,21.42
2023-04-06T16:27:39.764Z,21.98
2023-04-06T16:32:43.222Z,27.17
2023-04-06T16:37:46.798Z,25.17
2023-04-06T16:42:48.560Z,28.45
2023-04-06T16:47:50.783Z,23.90
2023-04-06T16:52:52.606Z,26.42
2023-04-06T16:57:57.632Z,23.33
2023-04-06T17:02:59.597Z,30.70
2023-04-06T17:08:01.583Z,25.05
2023-04-06T17:13:03.603Z,24.15
2023-04-06T17:18:05.613Z,20.08
2023-04-06T17:23:07.418Z,28.27
2023-04-06T17:28:09.280Z,21.83
2023-04-06T17:33:11.097Z,29.23
2023-04-06T17:38:12.904Z,24.92
2023-04-06T17:43:14.848Z,18.27
2023-04-06T17:48:16.998Z,27.63
2023-04-06T17:53:20.620Z,34.42
2023-04-06T17:58:22.656Z,23.08
2023-04-06T18:03:24.574Z,27.33
2023-04-06T18:08:26.401Z,24.65
2023-04-06T18:13:28.215Z,26.17
2023-04-06T18:18:30.012Z,24.52
2023-04-06T18:23:33.140Z,27.92
2023-04-06T18:28:34.940Z,22.63
2023-04-06T18:33:36.686Z,21.85
2023-04-06T18:38:48.085Z,27.63
2023-04-06T18:43:49.992Z,21.98
2023-04-06T18:48:51.901Z,20.08
2023-04-06T18:53:53.741Z,21.42
2023-04-06T18:58:56.259Z,19.88
2023-04-06T19:04:00.005Z,16.33
2023-04-06T19:09:05.037Z,30.27
2023-04-06T19:14:06.959Z,21.45
2023-04-06T19:19:12.870Z,18.85
2023-04-06T19:24:14.747Z,23.20
2023-04-06T19:29:17.411Z,20.60
2023-04-06T19:34:19.387Z,23.17
2023-04-06T19:39:21.167Z,17.40
2023-04-06T19:44:23.277Z,14.05
2023-04-06T19:49:28.302Z,18.50
2023-04-06T19:54:30.254Z,10.43
2023-04-06T19:59:34.477Z,15.45
2023-04-06T20:04:36.574Z,15.45
2023-04-06T20:09:38.571Z,20.70
2023-04-06T20:14:40.434Z,18.02
2023-04-06T20:19:42.202Z,18.90
2023-04-06T20:24:44.246Z,20.48
2023-04-06T20:29:46.189Z,15.65
2023-04-06T20:34:48.892Z,21.02
2023-04-06T20:39:51.373Z,20.50
2023-04-06T20:44:53.765Z,21.20
2023-04-06T20:49:56.078Z,17.67
2023-04-06T20:54:57.909Z,16.25
2023-04-06T20:59:59.763Z,20.92
2023-04-06T21:05:01.574Z,18.23
2023-04-06T21:10:03.909Z,14.48
2023-04-06T21:15:06.403Z,16.60
2023-04-06T21:20:09.520Z,13.57
2023-04-06T21:25:12.710Z,10.07
2023-04-06T21:30:15.076Z,13.48
2023-04-06T21:35:16.924Z,17.08
2023-04-06T21:40:20.871Z,14.60
2023-04-06T21:45:22.609Z,9.35
2023-04-06T21:50:24.437Z,11.63
2023-04-06T21:55:26.277Z,11.38
2023-04-06T22:00:28.024Z,13.50
2023-04-06T22:05:29.995Z,13.88
2023-04-06T22:10:31.978Z,12.25
2023-04-06T22:15:34.204Z,9.80
2023-04-06T22:20:36.027Z,11.52
2023-04-06T22:25:37.845Z,10.85
2023-04-06T22:30:39.743Z,19.20
2023-04-06T22:35:41.634Z,20.05
2023-04-06T22:40:43.417Z,12.30
2023-04-06T22:45:45.182Z,15.98
2023-04-06T22:50:46.957Z,17.45
2023-04-06T22:55:48.685Z,18.17
2023-04-06T23:00:50.534Z,14.35
2023-04-06T23:05:52.382Z,19.98
2023-04-06T23:10:54.139Z,18.33
2023-04-06T23:15:56.027Z,17.25
2023-04-06T23:20:57.801Z,13.32
2023-04-06T23:25:59.596Z,18.60
2023-04-06T23:31:01.455Z,15.25
2023-04-06T23:36:03.386Z,11.48
2023-04-06T23:41:05.602Z,16.63
2023-04-06T23:46:07.549Z,19.55
2023-04-06T23:51:09.409Z,20.38
2023-04-06T23:56:11.175Z,15.23
